Time;durP1;ratioP1;P1;durP2;ratioP2;P2;SDS_P1;SDS_P2;PMS_P1;PMS_P2;Temp;Humidity;BMP_temperature;BMP_pressure;BME280_temperature;BME280_humidity;BME280_pressure;Samples;Min_cycle;Max_cycle;Signal;HPM_P1;HPM_P2
2023/12/24 00:02:47;;;;;;;1.60;1.60;;;;;;;;;;6047887;29;20302;-68
2023/12/24 00:05:52;;;;;;;1.60;1.60;;;;;;;;;;6042521;29;20307;-69
2023/12/24 00:09:01;;;;;;;1.77;1.77;;;;;;;;;;6047178;29;20296;-70
2023/12/24 00:12:07;;;;;;;1.60;1.60;;;;;;;;;;6061456;29;20544;-69
2023/12/24 00:15:11;;;;;;;1.50;1.50;;;;;;;;;;6070196;29;20304;-70
2023/12/24 00:18:15;;;;;;;1.70;1.70;;;;;;;;;;6070704;29;20308;-69
2023/12/24 00:21:19;;;;;;;1.43;1.43;;;;;;;;;;6070242;29;20317;-69
2023/12/24 00:24:23;;;;;;;1.53;1.53;;;;;;;;;;6070144;29;20307;-69
2023/12/24 00:27:29;;;;;;;1.50;1.50;;;;;;;;;;6069321;29;20486;-69
2023/12/24 00:30:34;;;;;;;1.53;1.53;;;;;;;;;;6070383;29;20296;-69
2023/12/24 00:33:38;;;;;;;1.57;1.57;;;;;;;;;;6070574;29;20324;-69
2023/12/24 00:36:42;;;;;;;1.50;1.50;;;;;;;;;;6060379;29;20317;-69
2023/12/24 00:39:46;;;;;;;1.30;1.30;;;;;;;;;;6046659;29;20297;-71
2023/12/24 00:42:54;;;;;;;1.30;1.30;;;;;;;;;;6044753;29;20339;-69
2023/12/24 00:45:58;;;;;;;1.50;1.50;;;;;;;;;;6046399;29;20295;-70
2023/12/24 00:49:02;;;;;;;1.50;1.50;;;;;;;;;;6045290;29;20297;-70
2023/12/24 00:52:06;;;;;;;1.30;1.30;;;;;;;;;;6047192;29;20312;-69
2023/12/24 00:55:11;;;;;;;1.30;1.30;;;;;;;;;;6049672;29;20305;-69
2023/12/24 00:58:17;;;;;;;1.60;1.47;;;;;;;;;;6068584;29;20299;-69
2023/12/24 01:01:21;;;;;;;1.47;1.47;;;;;;;;;;6068970;29;20303;-69
2023/12/24 01:04:25;;;;;;;1.50;1.50;;;;;;;;;;6068968;29;20303;-70
2023/12/24 01:07:29;;;;;;;1.30;1.30;;;;;;;;;;6068331;29;20308;-69
2023/12/24 01:10:33;;;;;;;1.57;1.57;;;;;;;;;;6064476;29;20301;-69
2023/12/24 01:13:38;;;;;;;1.50;1.50;;;;;;;;;;6045106;29;20309;-69
2023/12/24 01:16:42;;;;;;;1.60;1.60;;;;;;;;;;6044245;29;20309;-70
2023/12/24 01:19:46;;;;;;;1.70;1.70;;;;;;;;;;6043630;29;20610;-70
2023/12/24 01:22:50;;;;;;;1.43;1.43;;;;;;;;;;6044781;29;20317;-70
2023/12/24 01:25:55;;;;;;;1.60;1.60;;;;;;;;;;6045599;29;20313;-68
2023/12/24 01:29:00;;;;;;;1.20;1.20;;;;;;;;;;6045074;29;20300;-70
2023/12/24 01:32:04;;;;;;;1.23;1.23;;;;;;;;;;6044488;29;20300;-70
2023/12/24 01:35:09;;;;;;;1.50;1.50;;;;;;;;;;6053658;29;20304;-70
2023/12/24 01:38:13;;;;;;;1.60;1.60;;;;;;;;;;6069352;29;20619;-70
2023/12/24 01:41:20;;;;;;;1.60;1.60;;;;;;;;;;6068741;29;20297;-70
2023/12/24 01:44:25;;;;;;;1.47;1.37;;;;;;;;;;6067099;29;20295;-69
2023/12/24 01:47:30;;;;;;;1.43;1.40;;;;;;;;;;6068637;29;20308;-70
2023/12/24 01:50:37;;;;;;;1.67;1.57;;;;;;;;;;6067953;29;20313;-69
2023/12/24 01:53:42;;;;;;;1.53;1.53;;;;;;;;;;6067698;29;20486;-69
2023/12/24 01:56:47;;;;;;;1.50;1.50;;;;;;;;;;6059706;29;20306;-69
2023/12/24 01:59:53;;;;;;;1.40;1.40;;;;;;;;;;6043429;29;20297;-69
2023/12/24 02:02:58;;;;;;;1.60;1.60;;;;;;;;;;6045116;29;20298;-69
2023/12/24 02:06:04;;;;;;;1.57;1.57;;;;;;;;;;6043340;29;20305;-69
2023/12/24 02:09:08;;;;;;;1.50;1.50;;;;;;;;;;6043343;29;20297;-69
2023/12/24 02:12:12;;;;;;;1.70;1.70;;;;;;;;;;6045303;29;20298;-70
2023/12/24 02:15:19;;;;;;;1.50;1.50;;;;;;;;;;6043868;29;20401;-69
2023/12/24 02:18:23;;;;;;;1.40;1.40;;;;;;;;;;6042973;29;20611;-70
2023/12/24 02:21:28;;;;;;;1.43;1.43;;;;;;;;;;6043136;29;20471;-69
2023/12/24 02:24:32;;;;;;;1.50;1.50;;;;;;;;;;6043376;29;20301;-71
2023/12/24 02:27:41;;;;;;;1.50;1.50;;;;;;;;;;6043086;29;20312;-69
2023/12/24 02:30:49;;;;;;;1.50;1.50;;;;;;;;;;6044066;29;20291;-70
2023/12/24 02:33:53;;;;;;;1.47;1.47;;;;;;;;;;6042529;29;20300;-69
2023/12/24 02:36:58;;;;;;;1.33;1.33;;;;;;;;;;6057369;29;20301;-69
2023/12/24 02:40:03;;;;;;;1.30;1.30;;;;;;;;;;6042696;29;20300;-70
2023/12/24 02:43:08;;;;;;;1.37;1.27;;;;;;;;;;6044367;29;20325;-69
2023/12/24 02:46:13;;;;;;;1.50;1.50;;;;;;;;;;6044079;29;20306;-70
2023/12/24 02:49:18;;;;;;;1.30;1.30;;;;;;;;;;6044038;29;20301;-69
2023/12/24 02:52:24;;;;;;;1.30;1.30;;;;;;;;;;6043255;29;20301;-69
2023/12/24 02:55:29;;;;;;;1.30;1.30;;;;;;;;;;6042305;29;20305;-69
2023/12/24 02:58:32;;;;;;;1.30;1.30;;;;;;;;;;6043317;29;20308;-70
2023/12/24 03:01:36;;;;;;;1.40;1.40;;;;;;;;;;6043969;29;20294;-69
2023/12/24 03:04:40;;;;;;;1.30;1.30;;;;;;;;;;6057889;29;20296;-69
2023/12/24 03:07:46;;;;;;;1.33;1.33;;;;;;;;;;6043280;29;20296;-70
2023/12/24 03:10:50;;;;;;;1.40;1.40;;;;;;;;;;6042223;29;20297;-69
2023/12/24 03:13:54;;;;;;;1.20;1.20;;;;;;;;;;6043585;29;20301;-70
2023/12/24 03:16:58;;;;;;;1.20;1.20;;;;;;;;;;6043606;29;20479;-69
2023/12/24 03:20:02;;;;;;;1.10;1.10;;;;;;;;;;6042921;29;20343;-70
2023/12/24 03:23:07;;;;;;;1.20;1.20;;;;;;;;;;6044077;29;20300;-69
2023/12/24 03:26:20;;;;;;;1.10;1.10;;;;;;;;;;6041235;29;20304;-70
2023/12/24 03:29:24;;;;;;;1.20;1.20;;;;;;;;;;6040829;29;20421;-69
2023/12/24 03:32:27;;;;;;;1.30;1.30;;;;;;;;;;6044090;29;20294;-68
2023/12/24 03:35:31;;;;;;;1.20;1.20;;;;;;;;;;6059278;29;20443;-69
2023/12/24 03:38:37;;;;;;;1.20;1.20;;;;;;;;;;6070212;29;20491;-70
2023/12/24 03:41:42;;;;;;;1.20;1.20;;;;;;;;;;6069926;29;20476;-68
2023/12/24 03:44:45;;;;;;;1.37;1.37;;;;;;;;;;6071278;29;20296;-70
2023/12/24 03:47:49;;;;;;;1.37;1.37;;;;;;;;;;6071483;29;20300;-69
2023/12/24 03:50:54;;;;;;;1.00;1.00;;;;;;;;;;6069270;29;20299;-69
2023/12/24 03:53:59;;;;;;;1.20;1.20;;;;;;;;;;6069244;29;20311;-72
2023/12/24 03:57:03;;;;;;;1.30;1.30;;;;;;;;;;6052886;29;20304;-70
2023/12/24 04:00:09;;;;;;;1.20;1.20;;;;;;;;;;6047493;29;20303;-70
2023/12/24 04:03:13;;;;;;;1.10;1.10;;;;;;;;;;6055483;29;20299;-69
2023/12/24 04:06:17;;;;;;;1.50;1.50;;;;;;;;;;6054548;29;20576;-70
2023/12/24 04:09:22;;;;;;;1.20;1.20;;;;;;;;;;6070548;29;20304;-69
2023/12/24 04:12:26;;;;;;;1.23;1.23;;;;;;;;;;6062228;29;20308;-70
2023/12/24 04:15:30;;;;;;;1.30;1.30;;;;;;;;;;6046365;29;20301;-70
2023/12/24 04:18:34;;;;;;;1.20;1.20;;;;;;;;;;6047881;29;20312;-69
2023/12/24 04:21:38;;;;;;;1.23;1.23;;;;;;;;;;6073568;29;20300;-69
2023/12/24 04:24:44;;;;;;;1.40;1.40;;;;;;;;;;6071798;29;20303;-69
2023/12/24 04:27:48;;;;;;;1.20;1.20;;;;;;;;;;6068598;29;20299;-70
2023/12/24 04:30:52;;;;;;;1.80;1.20;;;;;;;;;;6070259;29;20303;-70
2023/12/24 04:33:56;;;;;;;1.10;1.10;;;;;;;;;;6068430;29;20585;-69
2023/12/24 04:37:00;;;;;;;1.20;1.20;;;;;;;;;;6057092;29;20300;-70
2023/12/24 04:40:07;;;;;;;1.10;1.10;;;;;;;;;;6045720;29;20328;-69
2023/12/24 04:43:11;;;;;;;1.10;1.10;;;;;;;;;;6045025;29;20308;-69
2023/12/24 04:46:15;;;;;;;1.10;1.10;;;;;;;;;;6046881;29;20321;-70
2023/12/24 04:49:19;;;;;;;1.33;1.33;;;;;;;;;;6045455;29;20594;-69
2023/12/24 04:52:23;;;;;;;1.20;1.20;;;;;;;;;;6045612;29;20596;-69
2023/12/24 04:55:29;;;;;;;1.17;1.17;;;;;;;;;;6051137;29;20300;-70
2023/12/24 04:58:33;;;;;;;1.10;1.10;;;;;;;;;;6068347;29;20309;-69
2023/12/24 05:01:37;;;;;;;1.20;1.20;;;;;;;;;;6069146;29;20299;-69
2023/12/24 05:04:40;;;;;;;1.10;1.10;;;;;;;;;;6067948;29;20511;-69
2023/12/24 05:07:44;;;;;;;1.00;1.00;;;;;;;;;;6068112;29;20301;-71
2023/12/24 05:10:49;;;;;;;1.40;1.40;;;;;;;;;;6060805;29;20296;-70
2023/12/24 05:13:53;;;;;;;1.20;1.20;;;;;;;;;;6046393;29;20480;-69
2023/12/24 05:16:57;;;;;;;1.10;1.10;;;;;;;;;;6046264;29;20306;-69
2023/12/24 05:20:01;;;;;;;1.17;1.17;;;;;;;;;;6044105;29;20320;-69
2023/12/24 05:23:05;;;;;;;1.20;1.20;;;;;;;;;;6043917;29;20311;-70
2023/12/24 05:26:11;;;;;;;1.20;1.20;;;;;;;;;;6046754;29;20304;-69
2023/12/24 05:29:15;;;;;;;1.20;1.20;;;;;;;;;;6045810;29;20304;-70
2023/12/24 05:32:19;;;;;;;1.13;1.13;;;;;;;;;;6045296;29;20616;-70
2023/12/24 05:35:23;;;;;;;1.30;1.30;;;;;;;;;;6056249;29;20301;-70
2023/12/24 05:38:27;;;;;;;1.30;1.30;;;;;;;;;;6068868;29;20308;-69
2023/12/24 05:41:32;;;;;;;1.33;1.33;;;;;;;;;;6069656;29;20295;-69
2023/12/24 05:44:36;;;;;;;1.10;1.10;;;;;;;;;;6068666;29;20304;-69
2023/12/24 05:47:40;;;;;;;1.30;1.30;;;;;;;;;;6068995;29;20298;-69
2023/12/24 05:50:44;;;;;;;1.27;1.27;;;;;;;;;;6067221;29;20543;-68
2023/12/24 05:53:48;;;;;;;1.20;1.20;;;;;;;;;;6068621;29;20293;-71
2023/12/24 05:56:54;;;;;;;1.27;1.27;;;;;;;;;;6051909;29;20310;-69
2023/12/24 05:59:57;;;;;;;1.20;1.20;;;;;;;;;;6045271;29;20591;-70
2023/12/24 06:03:03;;;;;;;1.33;1.33;;;;;;;;;;6045171;29;20566;-68
2023/12/24 06:06:07;;;;;;;1.30;1.30;;;;;;;;;;6045497;29;20304;-69
2023/12/24 06:09:11;;;;;;;1.40;1.40;;;;;;;;;;6043349;29;20326;-70
2023/12/24 06:12:16;;;;;;;1.70;1.30;;;;;;;;;;6065376;29;20318;-70
2023/12/24 06:15:20;;;;;;;1.20;1.20;;;;;;;;;;6068762;29;20297;-70
2023/12/24 06:18:24;;;;;;;1.40;1.40;;;;;;;;;;6067822;29;20466;-70
2023/12/24 06:21:28;;;;;;;1.20;1.20;;;;;;;;;;6068518;29;20298;-70
2023/12/24 06:24:32;;;;;;;1.47;1.47;;;;;;;;;;6067507;29;20338;-69
2023/12/24 06:27:38;;;;;;;1.20;1.20;;;;;;;;;;6068628;29;20315;-70
2023/12/24 06:30:43;;;;;;;1.30;1.30;;;;;;;;;;6067835;29;20303;-69
2023/12/24 06:33:47;;;;;;;1.07;1.07;;;;;;;;;;6067841;29;20615;-69
2023/12/24 06:36:51;;;;;;;1.40;1.40;;;;;;;;;;6067540;29;20298;-71
2023/12/24 06:39:55;;;;;;;1.40;1.40;;;;;;;;;;6072604;29;20303;-70
2023/12/24 06:43:03;;;;;;;1.20;1.20;;;;;;;;;;6067507;29;20299;-68
2023/12/24 06:46:11;;;;;;;1.30;1.30;;;;;;;;;;6068072;29;20296;-70
2023/12/24 06:49:15;;;;;;;1.40;1.40;;;;;;;;;;6067066;29;20302;-69
2023/12/24 06:52:20;;;;;;;1.30;1.30;;;;;;;;;;6067714;29;20587;-71
2023/12/24 06:55:24;;;;;;;1.10;1.10;;;;;;;;;;6062314;29;20299;-71
2023/12/24 06:58:29;;;;;;;1.20;1.20;;;;;;;;;;6044426;29;20298;-69
2023/12/24 07:01:33;;;;;;;1.60;1.50;;;;;;;;;;6044867;29;20307;-70
2023/12/24 07:04:38;;;;;;;1.47;1.47;;;;;;;;;;6044143;29;20452;-71
2023/12/24 07:07:41;;;;;;;1.60;1.50;;;;;;;;;;6044772;29;20294;-70
2023/12/24 07:10:45;;;;;;;1.40;1.40;;;;;;;;;;6046404;29;20318;-70
2023/12/24 07:13:51;;;;;;;1.60;1.60;;;;;;;;;;6043124;29;20296;-70
2023/12/24 07:16:55;;;;;;;1.33;1.33;;;;;;;;;;6044617;29;20294;-69
2023/12/24 07:19:59;;;;;;;1.60;1.50;;;;;;;;;;6043725;29;20298;-70
2023/12/24 07:23:03;;;;;;;1.30;1.30;;;;;;;;;;6043917;29;20302;-70
2023/12/24 07:26:07;;;;;;;1.20;1.20;;;;;;;;;;6045051;29;20299;-70
2023/12/24 07:29:13;;;;;;;1.33;1.33;;;;;;;;;;6042876;29;20307;-70
2023/12/24 07:32:17;;;;;;;1.40;1.40;;;;;;;;;;6044249;29;20305;-70
2023/12/24 07:35:21;;;;;;;1.27;1.27;;;;;;;;;;6053236;29;20302;-71
2023/12/24 07:38:29;;;;;;;1.33;1.33;;;;;;;;;;6067057;29;20295;-71
2023/12/24 07:41:33;;;;;;;1.40;1.40;;;;;;;;;;6067318;29;20302;-70
2023/12/24 07:44:47;;;;;;;1.47;1.47;;;;;;;;;;6056475;29;20594;-69
2023/12/24 07:47:51;;;;;;;1.40;1.40;;;;;;;;;;6066089;29;20311;-71
2023/12/24 07:50:56;;;;;;;1.47;1.47;;;;;;;;;;6067231;29;20302;-69
2023/12/24 07:54:00;;;;;;;1.40;1.40;;;;;;;;;;6065749;29;20305;-70
2023/12/24 07:57:04;;;;;;;1.47;1.47;;;;;;;;;;6049373;29;20318;-70
2023/12/24 08:00:12;;;;;;;1.40;1.40;;;;;;;;;;6043121;29;20330;-69
2023/12/24 08:03:16;;;;;;;1.60;1.60;;;;;;;;;;6043502;29;20492;-71
2023/12/24 08:06:21;;;;;;;1.30;1.30;;;;;;;;;;6043987;29;20295;-70
2023/12/24 08:09:32;;;;;;;1.43;1.43;;;;;;;;;;6042892;29;20545;-70
2023/12/24 08:12:36;;;;;;;1.53;1.53;;;;;;;;;;6066550;29;20322;-71
2023/12/24 08:15:41;;;;;;;1.50;1.50;;;;;;;;;;6066583;29;20302;-69
2023/12/24 08:18:45;;;;;;;1.30;1.30;;;;;;;;;;6067889;29;20429;-70
2023/12/24 08:21:49;;;;;;;1.50;1.50;;;;;;;;;;6070952;29;20296;-70
2023/12/24 08:24:53;;;;;;;1.10;1.10;;;;;;;;;;6075494;29;20301;-71
2023/12/24 08:27:58;;;;;;;1.40;1.40;;;;;;;;;;6070552;29;20298;-70
2023/12/24 08:31:04;;;;;;;1.47;1.47;;;;;;;;;;6070918;29;20586;-71
2023/12/24 08:34:08;;;;;;;1.40;1.40;;;;;;;;;;6070044;29;20605;-71
2023/12/24 08:37:12;;;;;;;1.53;1.53;;;;;;;;;;6069864;29;20301;-70
2023/12/24 08:40:16;;;;;;;1.43;1.43;;;;;;;;;;6070322;29;20306;-70
2023/12/24 08:43:20;;;;;;;1.40;1.40;;;;;;;;;;6070515;29;20298;-70
2023/12/24 08:46:25;;;;;;;1.67;1.67;;;;;;;;;;6069396;29;20588;-71
2023/12/24 08:49:29;;;;;;;1.43;1.43;;;;;;;;;;6066836;29;20494;-70
2023/12/24 08:52:33;;;;;;;1.63;1.63;;;;;;;;;;6070184;29;20314;-70
2023/12/24 08:55:38;;;;;;;1.50;1.50;;;;;;;;;;6062816;29;20309;-70
2023/12/24 08:58:41;;;;;;;2.30;1.50;;;;;;;;;;6046479;29;20477;-70
2023/12/24 09:01:49;;;;;;;1.50;1.50;;;;;;;;;;6047133;29;20578;-68
2023/12/24 09:04:56;;;;;;;1.50;1.50;;;;;;;;;;6046574;29;20293;-71
2023/12/24 09:08:00;;;;;;;1.60;1.50;;;;;;;;;;6045584;29;20307;-70
2023/12/24 09:11:04;;;;;;;1.37;1.37;;;;;;;;;;6057194;29;20565;-71
2023/12/24 09:14:08;;;;;;;1.60;1.60;;;;;;;;;;6068059;29;20306;-69
2023/12/24 09:17:14;;;;;;;1.60;1.60;;;;;;;;;;6067834;29;20536;-70
2023/12/24 09:20:18;;;;;;;1.87;1.87;;;;;;;;;;6068817;29;20323;-69
2023/12/24 09:23:21;;;;;;;1.67;1.67;;;;;;;;;;6068994;29;20297;-68
2023/12/24 09:26:25;;;;;;;1.70;1.70;;;;;;;;;;6070091;29;20314;-67
2023/12/24 09:29:30;;;;;;;1.60;1.60;;;;;;;;;;6068215;29;20298;-67
2023/12/24 09:32:36;;;;;;;1.87;1.77;;;;;;;;;;6069093;29;20305;-73
2023/12/24 09:35:40;;;;;;;1.60;1.60;;;;;;;;;;6067458;29;20294;-70
2023/12/24 09:38:44;;;;;;;1.77;1.77;;;;;;;;;;6067493;29;20578;-70
2023/12/24 09:41:50;;;;;;;1.50;1.50;;;;;;;;;;6068768;29;20294;-70
2023/12/24 09:44:54;;;;;;;1.57;1.57;;;;;;;;;;6073118;29;20529;-72
2023/12/24 09:47:59;;;;;;;2.03;2.03;;;;;;;;;;6068125;29;20290;-71
2023/12/24 09:51:06;;;;;;;1.77;1.77;;;;;;;;;;6058927;29;20305;-69
2023/12/24 09:54:10;;;;;;;1.80;1.80;;;;;;;;;;6068563;29;20298;-69
2023/12/24 09:57:14;;;;;;;1.70;1.70;;;;;;;;;;6049270;29;20375;-70
2023/12/24 10:00:18;;;;;;;2.00;2.00;;;;;;;;;;6044440;29;20378;-70
2023/12/24 10:03:24;;;;;;;1.80;1.80;;;;;;;;;;6045077;29;20295;-69
2023/12/24 10:06:28;;;;;;;1.60;1.60;;;;;;;;;;6045692;29;20302;-71
2023/12/24 10:09:46;;;;;;;1.73;1.73;;;;;;;;;;6044996;29;20303;-70
2023/12/24 10:13:04;;;;;;;1.60;1.60;;;;;;;;;;6044501;29;20299;-69
2023/12/24 10:16:09;;;;;;;1.63;1.63;;;;;;;;;;6045051;29;20302;-71
2023/12/24 10:19:23;;;;;;;1.60;1.50;;;;;;;;;;6043035;29;20331;-70
2023/12/24 10:22:28;;;;;;;1.67;1.67;;;;;;;;;;6044830;29;20303;-70
2023/12/24 10:25:32;;;;;;;1.70;1.70;;;;;;;;;;6045343;29;20304;-69
2023/12/24 10:28:48;;;;;;;1.73;1.73;;;;;;;;;;6043944;29;20306;-70
2023/12/24 10:31:55;;;;;;;1.73;1.70;;;;;;;;;;6050268;29;20301;-70
2023/12/24 10:35:01;;;;;;;1.80;1.80;;;;;;;;;;6050168;29;20299;-71
2023/12/24 10:38:08;;;;;;;1.83;1.73;;;;;;;;;;6064500;29;20329;-68
2023/12/24 10:41:12;;;;;;;1.50;1.50;;;;;;;;;;6067174;29;20304;-69
2023/12/24 10:44:15;;;;;;;1.60;1.60;;;;;;;;;;6067032;29;20496;-69
2023/12/24 10:47:20;;;;;;;1.83;1.83;;;;;;;;;;6072699;29;20515;-69
2023/12/24 10:50:25;;;;;;;1.80;1.80;;;;;;;;;;6067708;29;20298;-69
2023/12/24 10:53:29;;;;;;;2.00;1.90;;;;;;;;;;6058865;29;20583;-69
2023/12/24 10:56:36;;;;;;;1.83;1.83;;;;;;;;;;6053363;29;20458;-70
2023/12/24 11:00:05;;;;;;;1.70;1.70;;;;;;;;;;6043749;29;20300;-68
2023/12/24 11:03:08;;;;;;;1.90;1.80;;;;;;;;;;6043642;29;20550;-69
2023/12/24 11:06:48;;;;;;;2.50;2.40;;;;;;;;;;6044461;29;20302;-71
2023/12/24 11:09:51;;;;;;;2.07;2.00;;;;;;;;;;6044703;29;20295;-69
2023/12/24 11:12:56;;;;;;;2.37;2.37;;;;;;;;;;6066672;29;20300;-70
2023/12/24 11:16:11;;;;;;;2.17;2.10;;;;;;;;;;6059380;29;20302;-71
2023/12/24 11:19:25;;;;;;;2.20;2.20;;;;;;;;;;6067361;29;20433;-70
2023/12/24 11:22:30;;;;;;;2.33;2.23;;;;;;;;;;6064911;29;20310;-68
2023/12/24 11:25:36;;;;;;;2.17;2.10;;;;;;;;;;6073426;29;20305;-68
2023/12/24 11:28:41;;;;;;;2.47;2.37;;;;;;;;;;6066486;29;20299;-68
2023/12/24 11:31:45;;;;;;;2.23;2.23;;;;;;;;;;6067188;29;20302;-68
2023/12/24 11:34:48;;;;;;;2.50;2.40;;;;;;;;;;6066487;29;20299;-67
2023/12/24 11:37:55;;;;;;;3.07;2.80;;;;;;;;;;6065273;29;20289;-66
2023/12/24 11:41:05;;;;;;;2.30;2.20;;;;;;;;;;6064335;29;20599;-68
2023/12/24 11:44:09;;;;;;;2.47;2.37;;;;;;;;;;6066611;29;20337;-68
2023/12/24 11:47:19;;;;;;;2.50;2.40;;;;;;;;;;6067132;29;20298;-67
2023/12/24 11:50:24;;;;;;;2.70;2.50;;;;;;;;;;6066461;29;20298;-67
2023/12/24 11:53:31;;;;;;;2.70;2.60;;;;;;;;;;6067711;29;20297;-69
2023/12/24 11:56:35;;;;;;;2.00;2.00;;;;;;;;;;6057052;29;20303;-67
2023/12/24 11:59:39;;;;;;;2.37;2.27;;;;;;;;;;6047703;29;20465;-68
2023/12/24 12:02:48;;;;;;;2.07;1.97;;;;;;;;;;6038058;29;20289;-67
2023/12/24 12:05:52;;;;;;;2.70;2.60;;;;;;;;;;6047316;29;20304;-67
2023/12/24 12:08:58;;;;;;;2.60;2.50;;;;;;;;;;6047421;29;20296;-68
2023/12/24 12:12:01;;;;;;;2.77;2.47;;;;;;;;;;6047787;29;20552;-68
2023/12/24 12:15:06;;;;;;;2.70;2.60;;;;;;;;;;6046803;29;20314;-67
2023/12/24 12:18:10;;;;;;;2.10;2.10;;;;;;;;;;6046280;29;20302;-67
2023/12/24 12:21:14;;;;;;;2.40;2.30;;;;;;;;;;6047700;29;20304;-67
2023/12/24 12:24:21;;;;;;;2.73;2.53;;;;;;;;;;6045580;29;20306;-66
2023/12/24 12:27:25;;;;;;;2.43;2.33;;;;;;;;;;6046744;29;20307;-67
2023/12/24 12:30:29;;;;;;;2.37;2.37;;;;;;;;;;6044985;29;20293;-68
2023/12/24 12:33:33;;;;;;;2.93;2.63;;;;;;;;;;6046837;29;20306;-67
2023/12/24 12:36:37;;;;;;;2.50;2.40;;;;;;;;;;6066781;29;20305;-67
2023/12/24 12:39:43;;;;;;;2.70;2.60;;;;;;;;;;6070024;29;20305;-68
2023/12/24 12:42:47;;;;;;;3.50;2.90;;;;;;;;;;6069746;29;20298;-67
2023/12/24 12:45:51;;;;;;;2.43;2.33;;;;;;;;;;6070149;29;20296;-69
2023/12/24 12:48:56;;;;;;;2.60;2.50;;;;;;;;;;6069465;29;20298;-68
2023/12/24 12:52:00;;;;;;;2.43;2.33;;;;;;;;;;6068796;29;20302;-67
2023/12/24 12:55:06;;;;;;;2.83;2.73;;;;;;;;;;6071339;29;20310;-67
2023/12/24 12:58:14;;;;;;;2.80;2.70;;;;;;;;;;6046462;29;20301;-68
2023/12/24 13:01:17;;;;;;;3.63;3.40;;;;;;;;;;6046651;29;20294;-68
2023/12/24 13:04:25;;;;;;;2.90;2.80;;;;;;;;;;6045905;29;20390;-69
2023/12/24 13:07:33;;;;;;;3.07;2.77;;;;;;;;;;6045238;29;20306;-69
2023/12/24 13:10:38;;;;;;;2.93;2.83;;;;;;;;;;6053368;29;20328;-67
2023/12/24 13:13:42;;;;;;;3.10;2.93;;;;;;;;;;6067863;29;20301;-68
2023/12/24 13:16:46;;;;;;;3.40;3.07;;;;;;;;;;6068334;29;20317;-67
2023/12/24 13:19:50;;;;;;;3.23;3.07;;;;;;;;;;6066957;29;20477;-67
2023/12/24 13:22:56;;;;;;;3.33;3.10;;;;;;;;;;6068478;29;20294;-65
2023/12/24 13:26:03;;;;;;;2.90;2.80;;;;;;;;;;6068799;29;20301;-66
2023/12/24 13:29:08;;;;;;;2.80;2.60;;;;;;;;;;6068532;29;20298;-67
2023/12/24 13:32:12;;;;;;;3.00;2.90;;;;;;;;;;6069044;29;20304;-65
2023/12/24 13:35:16;;;;;;;2.90;2.80;;;;;;;;;;6068469;29;20307;-68
2023/12/24 13:38:21;;;;;;;2.77;2.67;;;;;;;;;;6068518;29;20313;-68
2023/12/24 13:41:27;;;;;;;2.77;2.67;;;;;;;;;;6069126;29;20468;-66
2023/12/24 13:44:31;;;;;;;2.83;2.73;;;;;;;;;;6068586;29;20304;-67
2023/12/24 13:47:35;;;;;;;2.87;2.67;;;;;;;;;;6069141;29;20299;-67
2023/12/24 13:50:40;;;;;;;2.67;2.50;;;;;;;;;;6065811;29;20494;-67
2023/12/24 13:53:45;;;;;;;2.70;2.60;;;;;;;;;;6068072;29;20300;-68
2023/12/24 13:56:52;;;;;;;3.47;3.17;;;;;;;;;;6052348;29;20301;-69
2023/12/24 13:59:56;;;;;;;3.03;2.70;;;;;;;;;;6045345;29;20604;-68
2023/12/24 14:03:00;;;;;;;2.80;2.67;;;;;;;;;;6044634;29;20300;-71
2023/12/24 14:06:06;;;;;;;2.43;2.33;;;;;;;;;;6045391;29;20484;-70
2023/12/24 14:09:10;;;;;;;2.60;2.43;;;;;;;;;;6044803;29;20293;-68
2023/12/24 14:12:15;;;;;;;3.07;2.83;;;;;;;;;;6065126;29;20600;-67
2023/12/24 14:15:19;;;;;;;3.10;3.00;;;;;;;;;;6067549;29;20613;-69
2023/12/24 14:18:23;;;;;;;3.13;2.93;;;;;;;;;;6067372;29;20309;-67
2023/12/24 14:21:27;;;;;;;3.20;3.00;;;;;;;;;;6068015;29;20332;-68
2023/12/24 14:24:31;;;;;;;2.90;2.80;;;;;;;;;;6067371;29;20300;-69
2023/12/24 14:27:36;;;;;;;3.03;2.83;;;;;;;;;;6067644;29;20307;-66
2023/12/24 14:30:40;;;;;;;2.87;2.77;;;;;;;;;;6067429;29;20414;-66
2023/12/24 14:33:44;;;;;;;2.93;2.83;;;;;;;;;;6066914;29;20307;-68
2023/12/24 14:36:49;;;;;;;3.00;2.80;;;;;;;;;;6067402;29;20604;-66
2023/12/24 14:39:53;;;;;;;3.23;2.63;;;;;;;;;;6067065;29;20336;-67
2023/12/24 14:42:58;;;;;;;2.57;2.47;;;;;;;;;;6067030;29;20291;-66
2023/12/24 14:46:02;;;;;;;2.50;2.40;;;;;;;;;;6066476;29;20303;-67
2023/12/24 14:49:06;;;;;;;2.70;2.60;;;;;;;;;;6067119;29;20319;-68
2023/12/24 14:52:11;;;;;;;2.63;2.53;;;;;;;;;;6067453;29;20304;-65
2023/12/24 14:55:15;;;;;;;2.70;2.60;;;;;;;;;;6063169;29;20300;-66
2023/12/24 14:58:21;;;;;;;3.60;2.70;;;;;;;;;;6040945;29;20296;-68
2023/12/24 15:01:25;;;;;;;2.57;2.50;;;;;;;;;;6044561;29;20308;-68
2023/12/24 15:04:29;;;;;;;2.60;2.47;;;;;;;;;;6041201;29;20304;-68
2023/12/24 15:07:36;;;;;;;2.40;2.30;;;;;;;;;;6044636;29;20305;-69
2023/12/24 15:10:40;;;;;;;2.20;2.10;;;;;;;;;;6048533;29;20303;-69
2023/12/24 15:13:46;;;;;;;2.87;2.77;;;;;;;;;;6066498;29;20308;-71
2023/12/24 15:16:50;;;;;;;2.77;2.67;;;;;;;;;;6066400;29;20302;-68
2023/12/24 15:19:55;;;;;;;2.83;2.63;;;;;;;;;;6071761;29;20370;-72
2023/12/24 15:23:00;;;;;;;2.77;2.67;;;;;;;;;;6065609;29;20307;-75
2023/12/24 15:26:04;;;;;;;3.00;2.60;;;;;;;;;;6065149;29;20438;-71
2023/12/24 15:29:11;;;;;;;2.80;2.70;;;;;;;;;;6067716;29;20289;-70
2023/12/24 15:32:15;;;;;;;2.80;2.70;;;;;;;;;;6070157;29;20327;-72
2023/12/24 15:35:19;;;;;;;4.60;2.60;;;;;;;;;;6068389;29;20406;-71
2023/12/24 15:38:23;;;;;;;3.17;3.00;;;;;;;;;;6077927;29;20296;-71
2023/12/24 15:41:27;;;;;;;3.20;3.00;;;;;;;;;;6071141;29;20304;-72
2023/12/24 15:44:32;;;;;;;3.20;3.00;;;;;;;;;;6070800;29;20296;-71
2023/12/24 15:47:36;;;;;;;3.23;2.93;;;;;;;;;;6071381;29;20307;-68
2023/12/24 15:50:42;;;;;;;3.70;3.17;;;;;;;;;;6070687;29;20296;-70
2023/12/24 15:53:46;;;;;;;3.07;2.87;;;;;;;;;;6068554;29;20334;-71
2023/12/24 15:56:51;;;;;;;3.33;3.20;;;;;;;;;;6061766;29;20429;-72
2023/12/24 15:59:56;;;;;;;3.80;3.40;;;;;;;;;;6053095;29;20308;-72
2023/12/24 16:03:02;;;;;;;3.70;3.40;;;;;;;;;;6047206;29;20296;-67
2023/12/24 16:06:06;;;;;;;3.80;3.53;;;;;;;;;;6047842;29;20328;-74
2023/12/24 16:09:10;;;;;;;3.93;3.70;;;;;;;;;;6051942;29;20297;-67
2023/12/24 16:12:14;;;;;;;4.87;4.43;;;;;;;;;;6068512;29;20475;-68
2023/12/24 16:15:20;;;;;;;3.93;3.63;;;;;;;;;;6070551;29;20304;-69
2023/12/24 16:18:24;;;;;;;4.87;4.47;;;;;;;;;;6069962;29;20592;-69
2023/12/24 16:21:28;;;;;;;3.57;3.37;;;;;;;;;;6070477;29;20299;-67
2023/12/24 16:24:32;;;;;;;4.40;3.73;;;;;;;;;;6068234;29;20313;-67
2023/12/24 16:27:36;;;;;;;4.50;4.20;;;;;;;;;;6070199;29;20300;-68
2023/12/24 16:30:41;;;;;;;4.53;4.23;;;;;;;;;;6070312;29;20300;-69
2023/12/24 16:33:46;;;;;;;5.63;4.20;;;;;;;;;;6070118;29;20600;-70
2023/12/24 16:36:50;;;;;;;4.70;4.23;;;;;;;;;;6067956;29;20304;-69
2023/12/24 16:39:55;;;;;;;4.97;4.57;;;;;;;;;;6065723;29;20299;-68
2023/12/24 16:43:00;;;;;;;4.30;4.00;;;;;;;;;;6069954;29;20299;-69
2023/12/24 16:46:09;;;;;;;3.60;3.40;;;;;;;;;;6070389;29;20320;-70
2023/12/24 16:49:13;;;;;;;4.03;3.43;;;;;;;;;;6065676;29;20305;-69
2023/12/24 16:52:18;;;;;;;4.07;3.67;;;;;;;;;;6069791;29;20304;-70
2023/12/24 16:55:22;;;;;;;4.53;4.10;;;;;;;;;;6063788;29;20308;-68
2023/12/24 16:58:25;;;;;;;3.33;3.23;;;;;;;;;;6046216;29;20305;-69
2023/12/24 17:01:31;;;;;;;4.03;3.83;;;;;;;;;;6046233;29;20308;-70
2023/12/24 17:04:36;;;;;;;3.73;3.43;;;;;;;;;;6036023;29;20312;-70
2023/12/24 17:07:40;;;;;;;2.87;2.77;;;;;;;;;;6046977;29;20354;-68
2023/12/24 17:10:46;;;;;;;3.53;3.23;;;;;;;;;;6053705;29;20297;-71
2023/12/24 17:13:51;;;;;;;3.13;2.93;;;;;;;;;;6065313;29;20297;-70
2023/12/24 17:16:58;;;;;;;3.30;3.03;;;;;;;;;;6059234;29;20301;-68
2023/12/24 17:20:03;;;;;;;2.97;2.87;;;;;;;;;;6059623;29;20304;-67
2023/12/24 17:23:07;;;;;;;3.00;2.90;;;;;;;;;;6075974;29;20299;-67
2023/12/24 17:26:11;;;;;;;3.40;3.27;;;;;;;;;;6069122;29;20307;-66
2023/12/24 17:29:18;;;;;;;3.10;3.00;;;;;;;;;;6066885;29;20301;-67
2023/12/24 17:32:24;;;;;;;3.93;3.00;;;;;;;;;;6068025;29;20305;-68
2023/12/24 17:35:28;;;;;;;2.90;2.80;;;;;;;;;;6068092;29;20311;-67
2023/12/24 17:38:32;;;;;;;3.00;2.90;;;;;;;;;;6068343;29;20309;-68
2023/12/24 17:41:38;;;;;;;2.97;2.80;;;;;;;;;;6063139;29;20297;-68
2023/12/24 17:44:43;;;;;;;2.93;2.80;;;;;;;;;;6061683;29;20297;-69
2023/12/24 17:47:49;;;;;;;2.57;2.47;;;;;;;;;;6076680;29;20457;-67
2023/12/24 17:50:54;;;;;;;2.93;2.83;;;;;;;;;;6068247;29;20290;-69
2023/12/24 17:53:58;;;;;;;3.00;2.90;;;;;;;;;;6065797;29;20439;-69
2023/12/24 17:57:03;;;;;;;2.83;2.73;;;;;;;;;;6050472;29;20393;-68
2023/12/24 18:00:10;;;;;;;2.47;2.43;;;;;;;;;;6045222;29;20306;-69
2023/12/24 18:03:17;;;;;;;2.53;2.43;;;;;;;;;;6044871;29;20307;-70
2023/12/24 18:06:22;;;;;;;3.07;2.90;;;;;;;;;;6045705;29;20309;-71
2023/12/24 18:09:27;;;;;;;5.87;2.87;;;;;;;;;;6051177;29;20305;-70
2023/12/24 18:12:31;;;;;;;2.77;2.60;;;;;;;;;;6066983;29;20297;-70
2023/12/24 18:15:34;;;;;;;2.90;2.80;;;;;;;;;;6067458;29;20297;-72
2023/12/24 18:18:40;;;;;;;2.90;2.80;;;;;;;;;;6067790;29;20297;-70
2023/12/24 18:21:44;;;;;;;3.30;3.10;;;;;;;;;;6068882;29;20318;-70
2023/12/24 18:24:47;;;;;;;3.37;3.00;;;;;;;;;;6067612;29;20316;-70
2023/12/24 18:27:52;;;;;;;2.87;2.77;;;;;;;;;;6057698;29;20299;-74
2023/12/24 18:30:56;;;;;;;3.03;2.93;;;;;;;;;;6068062;29;20582;-68